sensor_id;sensor_type;location;lat;lon;timestamp;pressure;altitude;pressure_sealevel;temperature;humidity
54369;BME280;40266;52.434;17.056;2023-05-02T00:00:20;100330.34;;;9.15;67.86
54369;BME280;40266;52.434;17.056;2023-05-02T00:03:23;100322.94;;;9.19;67.81
54369;BME280;40266;52.434;17.056;2023-05-02T00:06:07;100319.55;;;9.24;67.61
54369;BME280;40266;52.434;17.056;2023-05-02T00:08:50;100317.20;;;9.28;67.44
54369;BME280;40266;52.434;17.056;2023-05-02T00:11:33;100317.29;;;9.34;67.21
54369;BME280;40266;52.434;17.056;2023-05-02T00:14:16;100316.13;;;9.40;67.08
54369;BME280;40266;52.434;17.056;2023-05-02T00:16:58;100314.86;;;9.43;66.87
54369;BME280;40266;52.434;17.056;2023-05-02T00:19:41;100317.43;;;9.45;66.72
54369;BME280;40266;52.434;17.056;2023-05-02T00:22:24;100312.02;;;9.45;66.94
54369;BME280;40266;52.434;17.056;2023-05-02T00:25:08;100305.95;;;9.44;66.79
54369;BME280;40266;52.434;17.056;2023-05-02T00:27:51;100300.70;;;9.45;67.08
54369;BME280;40266;52.434;17.056;2023-05-02T00:30:34;100301.23;;;9.44;66.80
54369;BME280;40266;52.434;17.056;2023-05-02T00:33:18;100299.41;;;9.48;66.69
54369;BME280;40266;52.434;17.056;2023-05-02T00:36:01;100300.41;;;9.51;66.72
54369;BME280;40266;52.434;17.056;2023-05-02T00:38:44;100300.53;;;9.54;66.52
54369;BME280;40266;52.434;17.056;2023-05-02T00:41:27;100303.13;;;9.55;66.80
54369;BME280;40266;52.434;17.056;2023-05-02T00:44:10;100300.20;;;9.54;66.66
54369;BME280;40266;52.434;17.056;2023-05-02T00:46:57;100300.15;;;9.55;66.54
54369;BME280;40266;52.434;17.056;2023-05-02T00:49:40;100296.10;;;9.57;66.63
54369;BME280;40266;52.434;17.056;2023-05-02T00:52:24;100293.48;;;9.57;66.63
54369;BME280;40266;52.434;17.056;2023-05-02T00:55:07;100296.09;;;9.59;66.61
54369;BME280;40266;52.434;17.056;2023-05-02T00:57:50;100292.57;;;9.60;66.58
54369;BME280;40266;52.434;17.056;2023-05-02T01:01:13;100293.92;;;9.62;66.50
54369;BME280;40266;52.434;17.056;2023-05-02T01:04:12;100291.48;;;9.63;66.60
54369;BME280;40266;52.434;17.056;2023-05-02T01:07:22;100290.40;;;9.64;66.96
54369;BME280;40266;52.434;17.056;2023-05-02T01:13:20;100291.64;;;9.63;67.06
54369;BME280;40266;52.434;17.056;2023-05-02T01:16:05;100291.63;;;9.63;67.12
54369;BME280;40266;52.434;17.056;2023-05-02T01:18:50;100287.98;;;9.62;67.30
54369;BME280;40266;52.434;17.056;2023-05-02T01:21:34;100290.64;;;9.61;67.45
54369;BME280;40266;52.434;17.056;2023-05-02T01:24:24;100290.85;;;9.59;67.44
54369;BME280;40266;52.434;17.056;2023-05-02T01:30:31;100291.81;;;9.55;67.82
54369;BME280;40266;52.434;17.056;2023-05-02T01:33:16;100297.95;;;9.52;67.93
54369;BME280;40266;52.434;17.056;2023-05-02T01:36:01;100295.39;;;9.49;68.17
54369;BME280;40266;52.434;17.056;2023-05-02T01:38:45;100293.15;;;9.47;68.42
54369;BME280;40266;52.434;17.056;2023-05-02T01:41:30;100290.76;;;9.45;68.50
54369;BME280;40266;52.434;17.056;2023-05-02T01:44:15;100287.82;;;9.43;68.76
54369;BME280;40266;52.434;17.056;2023-05-02T01:46:59;100291.17;;;9.41;68.95
54369;BME280;40266;52.434;17.056;2023-05-02T01:49:45;100292.08;;;9.40;68.90
54369;BME280;40266;52.434;17.056;2023-05-02T01:52:28;100287.03;;;9.40;68.99
54369;BME280;40266;52.434;17.056;2023-05-02T01:55:13;100290.35;;;9.39;68.91
54369;BME280;40266;52.434;17.056;2023-05-02T01:57:56;100285.14;;;9.38;69.43
54369;BME280;40266;52.434;17.056;2023-05-02T02:00:40;100286.38;;;9.37;69.55
54369;BME280;40266;52.434;17.056;2023-05-02T02:03:25;100287.78;;;9.37;69.86
54369;BME280;40266;52.434;17.056;2023-05-02T02:06:09;100285.69;;;9.36;69.69
54369;BME280;40266;52.434;17.056;2023-05-02T02:08:53;100284.29;;;9.37;69.91
54369;BME280;40266;52.434;17.056;2023-05-02T02:11:46;100285.00;;;9.37;70.12
54369;BME280;40266;52.434;17.056;2023-05-02T02:14:36;100282.52;;;9.38;70.17
54369;BME280;40266;52.434;17.056;2023-05-02T02:17:35;100284.95;;;9.38;70.55
54369;BME280;40266;52.434;17.056;2023-05-02T02:20:20;100284.61;;;9.38;70.60
54369;BME280;40266;52.434;17.056;2023-05-02T02:23:05;100286.17;;;9.38;70.59
54369;BME280;40266;52.434;17.056;2023-05-02T02:25:50;100283.39;;;9.38;71.07
54369;BME280;40266;52.434;17.056;2023-05-02T02:28:33;100284.61;;;9.38;71.29
54369;BME280;40266;52.434;17.056;2023-05-02T02:31:16;100292.30;;;9.38;71.66
54369;BME280;40266;52.434;17.056;2023-05-02T02:34:00;100301.73;;;9.37;71.85
54369;BME280;40266;52.434;17.056;2023-05-02T02:36:56;100303.83;;;9.36;71.92
54369;BME280;40266;52.434;17.056;2023-05-02T02:40:18;100305.73;;;9.36;72.30
54369;BME280;40266;52.434;17.056;2023-05-02T02:43:35;100305.23;;;9.36;72.61
54369;BME280;40266;52.434;17.056;2023-05-02T02:52:57;100314.86;;;9.33;73.05
54369;BME280;40266;52.434;17.056;2023-05-02T02:56:04;100319.44;;;9.30;73.20
54369;BME280;40266;52.434;17.056;2023-05-02T02:58:59;100319.48;;;9.28;73.24
54369;BME280;40266;52.434;17.056;2023-05-02T03:01:47;100321.24;;;9.27;73.47
54369;BME280;40266;52.434;17.056;2023-05-02T03:04:36;100323.89;;;9.25;73.30
54369;BME280;40266;52.434;17.056;2023-05-02T03:07:20;100324.77;;;9.25;73.60
54369;BME280;40266;52.434;17.056;2023-05-02T03:10:04;100332.08;;;9.24;73.43
54369;BME280;40266;52.434;17.056;2023-05-02T03:12:48;100338.88;;;9.24;73.44
54369;BME280;40266;52.434;17.056;2023-05-02T03:18:34;100344.95;;;9.26;73.67
54369;BME280;40266;52.434;17.056;2023-05-02T03:21:17;100347.92;;;9.26;73.76
54369;BME280;40266;52.434;17.056;2023-05-02T03:24:02;100343.38;;;9.26;73.94
54369;BME280;40266;52.434;17.056;2023-05-02T03:26:45;100341.28;;;9.26;74.24
54369;BME280;40266;52.434;17.056;2023-05-02T03:29:29;100339.37;;;9.26;74.21
54369;BME280;40266;52.434;17.056;2023-05-02T03:32:12;100330.14;;;9.26;74.49
54369;BME280;40266;52.434;17.056;2023-05-02T03:34:56;100335.73;;;9.26;74.56
54369;BME280;40266;52.434;17.056;2023-05-02T03:37:41;100339.23;;;9.25;74.91
54369;BME280;40266;52.434;17.056;2023-05-02T03:40:24;100343.59;;;9.25;75.02
54369;BME280;40266;52.434;17.056;2023-05-02T03:43:09;100350.72;;;9.26;74.94
54369;BME280;40266;52.434;17.056;2023-05-02T03:45:53;100355.22;;;9.26;75.08
54369;BME280;40266;52.434;17.056;2023-05-02T03:48:36;100362.17;;;9.27;75.25
54369;BME280;40266;52.434;17.056;2023-05-02T03:51:19;100368.80;;;9.28;75.27
54369;BME280;40266;52.434;17.056;2023-05-02T03:54:03;100379.24;;;9.28;75.54
54369;BME280;40266;52.434;17.056;2023-05-02T03:56:47;100390.20;;;9.29;75.42
54369;BME280;40266;52.434;17.056;2023-05-02T03:59:36;100396.13;;;9.30;75.87
54369;BME280;40266;52.434;17.056;2023-05-02T04:02:26;100402.70;;;9.33;76.31
54369;BME280;40266;52.434;17.056;2023-05-02T04:05:09;100409.46;;;9.35;76.64
54369;BME280;40266;52.434;17.056;2023-05-02T04:07:53;100406.75;;;9.40;76.84
54369;BME280;40266;52.434;17.056;2023-05-02T04:10:36;100409.98;;;9.45;77.28
54369;BME280;40266;52.434;17.056;2023-05-02T04:13:21;100411.83;;;9.49;77.83
54369;BME280;40266;52.434;17.056;2023-05-02T04:16:04;100410.21;;;9.52;78.27
54369;BME280;40266;52.434;17.056;2023-05-02T04:18:50;100413.10;;;9.57;78.78
54369;BME280;40266;52.434;17.056;2023-05-02T04:21:35;100419.48;;;9.60;79.38
54369;BME280;40266;52.434;17.056;2023-05-02T04:24:21;100425.56;;;9.62;79.80
54369;BME280;40266;52.434;17.056;2023-05-02T04:27:04;100433.53;;;9.65;80.45
54369;BME280;40266;52.434;17.056;2023-05-02T04:29:48;100432.81;;;9.67;80.90
54369;BME280;40266;52.434;17.056;2023-05-02T04:32:32;100435.54;;;9.69;81.15
54369;BME280;40266;52.434;17.056;2023-05-02T04:35:16;100435.16;;;9.71;81.69
54369;BME280;40266;52.434;17.056;2023-05-02T04:38:00;100435.15;;;9.72;81.99
54369;BME280;40266;52.434;17.056;2023-05-02T04:40:43;100438.80;;;9.73;82.16
54369;BME280;40266;52.434;17.056;2023-05-02T04:43:27;100435.63;;;9.75;82.71
54369;BME280;40266;52.434;17.056;2023-05-02T04:46:14;100435.08;;;9.76;83.06
54369;BME280;40266;52.434;17.056;2023-05-02T04:48:58;100435.58;;;9.78;82.99
54369;BME280;40266;52.434;17.056;2023-05-02T04:51:41;100437.10;;;9.80;83.44
54369;BME280;40266;52.434;17.056;2023-05-02T04:54:24;100439.68;;;9.82;83.74
54369;BME280;40266;52.434;17.056;2023-05-02T04:57:07;100439.64;;;9.84;84.08
54369;BME280;40266;52.434;17.056;2023-05-02T04:59:54;100439.14;;;9.83;84.47
54369;BME280;40266;52.434;17.056;2023-05-02T05:02:37;100442.09;;;9.84;84.70
54369;BME280;40266;52.434;17.056;2023-05-02T05:05:22;100439.66;;;9.84;84.90
54369;BME280;40266;52.434;17.056;2023-05-02T05:08:05;100444.35;;;9.84;85.07
54369;BME280;40266;52.434;17.056;2023-05-02T05:10:50;100446.62;;;9.84;85.39
54369;BME280;40266;52.434;17.056;2023-05-02T05:13:33;100448.55;;;9.84;85.71
54369;BME280;40266;52.434;17.056;2023-05-02T05:16:17;100445.41;;;9.84;85.96
54369;BME280;40266;52.434;17.056;2023-05-02T05:19:01;100452.22;;;9.83;86.13
54369;BME280;40266;52.434;17.056;2023-05-02T05:21:44;100455.55;;;9.83;86.18
54369;BME280;40266;52.434;17.056;2023-05-02T05:24:28;100457.98;;;9.82;86.27
54369;BME280;40266;52.434;17.056;2023-05-02T05:27:13;100454.30;;;9.83;86.47
54369;BME280;40266;52.434;17.056;2023-05-02T05:29:56;100450.13;;;9.83;86.68
54369;BME280;40266;52.434;17.056;2023-05-02T05:32:39;100452.38;;;9.84;86.81
54369;BME280;40266;52.434;17.056;2023-05-02T05:35:23;100454.11;;;9.84;87.07
54369;BME280;40266;52.434;17.056;2023-05-02T05:38:07;100454.61;;;9.85;87.41
54369;BME280;40266;52.434;17.056;2023-05-02T05:40:52;100455.48;;;9.86;87.52
54369;BME280;40266;52.434;17.056;2023-05-02T05:43:35;100454.57;;;9.87;87.61
54369;BME280;40266;52.434;17.056;2023-05-02T05:46:20;100455.40;;;9.90;87.83
54369;BME280;40266;52.434;17.056;2023-05-02T05:49:03;100452.02;;;9.95;88.24
54369;BME280;40266;52.434;17.056;2023-05-02T05:51:48;100449.64;;;10.00;88.54
54369;BME280;40266;52.434;17.056;2023-05-02T05:54:32;100457.05;;;10.05;88.39
54369;BME280;40266;52.434;17.056;2023-05-02T05:57:15;100460.06;;;10.12;88.54
54369;BME280;40266;52.434;17.056;2023-05-02T05:59:58;100461.48;;;10.20;89.06
54369;BME280;40266;52.434;17.056;2023-05-02T06:02:42;100463.98;;;10.27;89.05
54369;BME280;40266;52.434;17.056;2023-05-02T06:05:31;100465.04;;;10.36;89.40
54369;BME280;40266;52.434;17.056;2023-05-02T06:08:14;100472.72;;;10.45;89.26
54369;BME280;40266;52.434;17.056;2023-05-02T06:10:58;100473.95;;;10.53;89.52
54369;BME280;40266;52.434;17.056;2023-05-02T06:13:40;100478.83;;;10.62;89.25
54369;BME280;40266;52.434;17.056;2023-05-02T06:16:24;100484.01;;;10.73;89.19
54369;BME280;40266;52.434;17.056;2023-05-02T06:19:07;100485.49;;;10.85;89.39
54369;BME280;40266;52.434;17.056;2023-05-02T06:21:50;100489.94;;;10.98;89.58
54369;BME280;40266;52.434;17.056;2023-05-02T06:24:33;100493.80;;;11.13;89.83
54369;BME280;40266;52.434;17.056;2023-05-02T06:27:16;100497.25;;;11.30;89.96
54369;BME280;40266;52.434;17.056;2023-05-02T06:29:59;100494.69;;;11.50;89.66
54369;BME280;40266;52.434;17.056;2023-05-02T06:32:42;100497.30;;;11.72;89.79
54369;BME280;40266;52.434;17.056;2023-05-02T06:35:25;100499.35;;;11.96;89.54
54369;BME280;40266;52.434;17.056;2023-05-02T06:38:08;100505.95;;;12.25;88.70
54369;BME280;40266;52.434;17.056;2023-05-02T06:40:51;100516.39;;;12.53;88.02
54369;BME280;40266;52.434;17.056;2023-05-02T06:43:34;100517.09;;;12.71;86.38
54369;BME280;40266;52.434;17.056;2023-05-02T06:46:17;100520.75;;;12.90;86.06
54369;BME280;40266;52.434;17.056;2023-05-02T06:49:02;100524.45;;;13.13;85.54
54369;BME280;40266;52.434;17.056;2023-05-02T06:51:45;100527.29;;;13.41;84.63
54369;BME280;40266;52.434;17.056;2023-05-02T06:54:28;100529.55;;;13.80;83.60
54369;BME280;40266;52.434;17.056;2023-05-02T06:57:10;100532.38;;;14.11;82.53
54369;BME280;40266;52.434;17.056;2023-05-02T06:59:53;100541.64;;;14.38;81.39
54369;BME280;40266;52.434;17.056;2023-05-02T07:02:36;100540.02;;;14.54;80.16
54369;BME280;40266;52.434;17.056;2023-05-02T07:05:19;100548.33;;;14.73;79.93
54369;BME280;40266;52.434;17.056;2023-05-02T07:08:03;100550.05;;;14.92;79.56
54369;BME280;40266;52.434;17.056;2023-05-02T07:10:46;100554.95;;;15.17;78.92
54369;BME280;40266;52.434;17.056;2023-05-02T07:13:29;100555.41;;;15.36;77.52
54369;BME280;40266;52.434;17.056;2023-05-02T07:16:12;100559.11;;;15.59;76.92
54369;BME280;40266;52.434;17.056;2023-05-02T07:18:55;100562.37;;;15.88;75.30
54369;BME280;40266;52.434;17.056;2023-05-02T07:21:38;100561.55;;;16.03;75.06
54369;BME280;40266;52.434;17.056;2023-05-02T07:24:21;100563.20;;;16.18;74.75
54369;BME280;40266;52.434;17.056;2023-05-02T07:27:04;100573.52;;;16.33;72.24
54369;BME280;40266;52.434;17.056;2023-05-02T07:29:47;100577.35;;;16.42;71.69
54369;BME280;40266;52.434;17.056;2023-05-02T07:32:30;100584.20;;;16.51;70.86
54369;BME280;40266;52.434;17.056;2023-05-02T07:35:13;100588.92;;;16.56;69.51
54369;BME280;40266;52.434;17.056;2023-05-02T07:37:56;100588.25;;;16.63;69.27
54369;BME280;40266;52.434;17.056;2023-05-02T07:40:39;100592.79;;;16.68;67.94
54369;BME280;40266;52.434;17.056;2023-05-02T07:43:22;100597.40;;;16.76;68.21
54369;BME280;40266;52.434;17.056;2023-05-02T07:46:05;100601.75;;;16.85;68.32
54369;BME280;40266;52.434;17.056;2023-05-02T07:48:49;100608.58;;;16.95;67.33
54369;BME280;40266;52.434;17.056;2023-05-02T07:51:32;100608.52;;;16.99;67.31
54369;BME280;40266;52.434;17.056;2023-05-02T07:54:19;100616.33;;;17.07;66.78
54369;BME280;40266;52.434;17.056;2023-05-02T07:57:02;100618.86;;;17.05;64.71
54369;BME280;40266;52.434;17.056;2023-05-02T07:59:46;100620.30;;;16.97;63.98
54369;BME280;40266;52.434;17.056;2023-05-02T08:02:29;100624.23;;;16.96;64.53
54369;BME280;40266;52.434;17.056;2023-05-02T08:05:12;100629.23;;;17.06;64.92
54369;BME280;40266;52.434;17.056;2023-05-02T08:07:56;100630.66;;;17.14;64.39
54369;BME280;40266;52.434;17.056;2023-05-02T08:10:39;100629.86;;;17.16;62.59
54369;BME280;40266;52.434;17.056;2023-05-02T08:13:22;100632.84;;;17.20;62.42
54369;BME280;40266;52.434;17.056;2023-05-02T08:16:05;100641.63;;;17.40;62.49
54369;BME280;40266;52.434;17.056;2023-05-02T08:18:48;100638.59;;;17.60;61.52
54369;BME280;40266;52.434;17.056;2023-05-02T08:21:31;100641.89;;;17.65;60.08
54369;BME280;40266;52.434;17.056;2023-05-02T08:24:14;100644.57;;;17.64;58.12
54369;BME280;40266;52.434;17.056;2023-05-02T08:26:57;100644.59;;;17.75;59.54
54369;BME280;40266;52.434;17.056;2023-05-02T08:29:40;100648.45;;;17.98;58.48
54369;BME280;40266;52.434;17.056;2023-05-02T08:32:23;100655.06;;;18.25;58.38
54369;BME280;40266;52.434;17.056;2023-05-02T08:35:06;100656.22;;;18.51;57.64
54369;BME280;40266;52.434;17.056;2023-05-02T08:37:49;100660.96;;;18.87;56.12
54369;BME280;40266;52.434;17.056;2023-05-02T08:40:35;100667.29;;;19.32;54.51
54369;BME280;40266;52.434;17.056;2023-05-02T08:43:24;100674.67;;;19.94;52.85
54369;BME280;40266;52.434;17.056;2023-05-02T08:46:09;100675.70;;;20.60;52.05
54369;BME280;40266;52.434;17.056;2023-05-02T08:48:54;100680.98;;;20.75;51.28
54369;BME280;40266;52.434;17.056;2023-05-02T08:51:41;100684.64;;;20.37;50.39
54369;BME280;40266;52.434;17.056;2023-05-02T08:54:25;100684.55;;;19.92;50.20
54369;BME280;40266;52.434;17.056;2023-05-02T08:57:08;100685.45;;;19.49;50.84
54369;BME280;40266;52.434;17.056;2023-05-02T08:59:51;100686.41;;;19.29;50.94
54369;BME280;40266;52.434;17.056;2023-05-02T09:03:29;100692.22;;;19.09;51.03
54369;BME280;40266;52.434;17.056;2023-05-02T09:06:17;100689.84;;;18.93;51.76
54369;BME280;40266;52.434;17.056;2023-05-02T09:09:00;100692.05;;;18.85;51.84
54369;BME280;40266;52.434;17.056;2023-05-02T09:11:45;100694.77;;;18.84;51.87
54369;BME280;40266;52.434;17.056;2023-05-02T09:14:28;100689.09;;;18.84;52.09
54369;BME280;40266;52.434;17.056;2023-05-02T09:17:11;100689.62;;;18.84;52.01
54369;BME280;40266;52.434;17.056;2023-05-02T09:20:00;100695.23;;;18.85;52.10
54369;BME280;40266;52.434;17.056;2023-05-02T09:22:48;100693.83;;;18.85;52.06
54369;BME280;40266;52.434;17.056;2023-05-02T09:25:35;100698.23;;;18.85;51.99
54369;BME280;40266;52.434;17.056;2023-05-02T09:28:19;100700.84;;;18.83;52.00
54369;BME280;40266;52.434;17.056;2023-05-02T09:31:06;100700.45;;;18.72;51.93
54369;BME280;40266;52.434;17.056;2023-05-02T09:33:50;100705.48;;;18.74;51.59
54369;BME280;40266;52.434;17.056;2023-05-02T09:36:39;100708.48;;;18.74;50.65
54369;BME280;40266;52.434;17.056;2023-05-02T09:39:27;100708.21;;;18.76;50.73
54369;BME280;40266;52.434;17.056;2023-05-02T09:42:29;100711.89;;;18.77;49.86
54369;BME280;40266;52.434;17.056;2023-05-02T09:45:25;100712.64;;;18.80;49.74
54369;BME280;40266;52.434;17.056;2023-05-02T09:48:08;100714.54;;;18.85;49.67
54369;BME280;40266;52.434;17.056;2023-05-02T09:50:51;100716.86;;;18.88;48.82
54369;BME280;40266;52.434;17.056;2023-05-02T09:53:42;100715.38;;;18.93;48.87
54369;BME280;40266;52.434;17.056;2023-05-02T09:56:25;100721.02;;;19.03;49.10
54369;BME280;40266;52.434;17.056;2023-05-02T09:59:15;100727.71;;;19.14;48.53
54369;BME280;40266;52.434;17.056;2023-05-02T10:02:00;100727.77;;;19.20;48.05
54369;BME280;40266;52.434;17.056;2023-05-02T10:04:45;100729.31;;;19.21;46.52
54369;BME280;40266;52.434;17.056;2023-05-02T10:07:29;100730.98;;;19.23;46.24
54369;BME280;40266;52.434;17.056;2023-05-02T10:10:15;100730.12;;;19.26;45.94
54369;BME280;40266;52.434;17.056;2023-05-02T10:13:00;100731.48;;;19.33;45.80
54369;BME280;40266;52.434;17.056;2023-05-02T10:15:45;100731.86;;;19.39;45.07
54369;BME280;40266;52.434;17.056;2023-05-02T10:21:24;100731.50;;;19.59;45.33
54369;BME280;40266;52.434;17.056;2023-05-02T10:24:11;100735.83;;;19.75;44.36
54369;BME280;40266;52.434;17.056;2023-05-02T10:26:54;100738.33;;;19.84;44.19
54369;BME280;40266;52.434;17.056;2023-05-02T10:29:38;100748.00;;;19.95;43.82
54369;BME280;40266;52.434;17.056;2023-05-02T10:32:23;100750.16;;;20.05;43.93
54369;BME280;40266;52.434;17.056;2023-05-02T10:35:10;100751.00;;;20.12;43.78
54369;BME280;40266;52.434;17.056;2023-05-02T10:37:54;100758.62;;;20.21;43.45
54369;BME280;40266;52.434;17.056;2023-05-02T10:40:38;100757.68;;;20.22;43.18
54369;BME280;40266;52.434;17.056;2023-05-02T10:43:24;100754.27;;;20.26;42.66
54369;BME280;40266;52.434;17.056;2023-05-02T10:49:16;100762.98;;;20.32;42.03
54369;BME280;40266;52.434;17.056;2023-05-02T10:52:40;100763.95;;;20.21;42.62
54369;BME280;40266;52.434;17.056;2023-05-02T10:55:23;100768.52;;;20.22;42.09
54369;BME280;40266;52.434;17.056;2023-05-02T11:00:48;100763.27;;;20.08;41.94
54369;BME280;40266;52.434;17.056;2023-05-02T11:03:58;100767.16;;;19.98;42.18
54369;BME280;40266;52.434;17.056;2023-05-02T11:09:40;100769.27;;;19.95;42.88
54369;BME280;40266;52.434;17.056;2023-05-02T11:12:46;100773.36;;;19.89;42.46
54369;BME280;40266;52.434;17.056;2023-05-02T11:18:14;100775.11;;;19.66;42.83
54369;BME280;40266;52.434;17.056;2023-05-02T11:21:27;100780.16;;;19.57;42.81
54369;BME280;40266;52.434;17.056;2023-05-02T11:24:36;100777.84;;;19.48;42.81
54369;BME280;40266;52.434;17.056;2023-05-02T11:30:12;100787.95;;;19.67;43.79
54369;BME280;40266;52.434;17.056;2023-05-02T11:35:42;100789.34;;;19.68;43.65
54369;BME280;40266;52.434;17.056;2023-05-02T11:38:27;100794.81;;;19.65;43.42
54369;BME280;40266;52.434;17.056;2023-05-02T11:41:16;100797.32;;;19.65;43.58
54369;BME280;40266;52.434;17.056;2023-05-02T11:44:02;100799.99;;;19.71;42.90
54369;BME280;40266;52.434;17.056;2023-05-02T11:46:45;100800.27;;;19.79;43.22
54369;BME280;40266;52.434;17.056;2023-05-02T11:49:28;100810.20;;;19.95;43.25
54369;BME280;40266;52.434;17.056;2023-05-02T11:52:11;100813.81;;;20.11;43.25
54369;BME280;40266;52.434;17.056;2023-05-02T11:54:54;100817.60;;;20.26;43.12
54369;BME280;40266;52.434;17.056;2023-05-02T11:57:39;100818.55;;;20.31;42.56
54369;BME280;40266;52.434;17.056;2023-05-02T12:00:26;100825.33;;;20.30;41.87
54369;BME280;40266;52.434;17.056;2023-05-02T12:03:21;100830.59;;;20.31;42.17
54369;BME280;40266;52.434;17.056;2023-05-02T12:06:22;100839.03;;;20.35;41.73
54369;BME280;40266;52.434;17.056;2023-05-02T12:09:07;100842.91;;;20.33;41.84
54369;BME280;40266;52.434;17.056;2023-05-02T12:11:51;100837.64;;;20.26;41.72
54369;BME280;40266;52.434;17.056;2023-05-02T12:14:35;100842.23;;;20.19;41.49
54369;BME280;40266;52.434;17.056;2023-05-02T12:17:19;100843.75;;;20.20;41.89
54369;BME280;40266;52.434;17.056;2023-05-02T12:20:05;100848.28;;;20.25;42.00
54369;BME280;40266;52.434;17.056;2023-05-02T12:22:50;100851.34;;;20.25;41.96
54369;BME280;40266;52.434;17.056;2023-05-02T12:25:41;100853.81;;;20.22;41.83
54369;BME280;40266;52.434;17.056;2023-05-02T12:28:24;100859.23;;;20.19;41.63
54369;BME280;40266;52.434;17.056;2023-05-02T12:31:09;100856.43;;;20.19;41.36
54369;BME280;40266;52.434;17.056;2023-05-02T12:33:53;100866.17;;;20.19;42.19
54369;BME280;40266;52.434;17.056;2023-05-02T12:36:43;100864.39;;;20.26;42.58
54369;BME280;40266;52.434;17.056;2023-05-02T12:39:40;100870.65;;;20.31;42.81
54369;BME280;40266;52.434;17.056;2023-05-02T12:42:26;100876.84;;;20.38;43.43
54369;BME280;40266;52.434;17.056;2023-05-02T12:45:16;100877.52;;;20.42;43.30
54369;BME280;40266;52.434;17.056;2023-05-02T12:48:01;100880.41;;;20.41;43.44
54369;BME280;40266;52.434;17.056;2023-05-02T12:50:44;100882.14;;;20.32;42.87
54369;BME280;40266;52.434;17.056;2023-05-02T12:53:40;100883.31;;;20.17;43.19
54369;BME280;40266;52.434;17.056;2023-05-02T12:56:24;100882.48;;;20.03;43.55
54369;BME280;40266;52.434;17.056;2023-05-02T12:59:30;100878.63;;;19.99;43.93
54369;BME280;40266;52.434;17.056;2023-05-02T13:02:13;100884.48;;;19.95;43.87
54369;BME280;40266;52.434;17.056;2023-05-02T13:04:56;100887.64;;;19.86;43.96
54369;BME280;40266;52.434;17.056;2023-05-02T13:07:39;100890.70;;;19.78;44.08
54369;BME280;40266;52.434;17.056;2023-05-02T13:10:22;100889.19;;;19.77;44.58
54369;BME280;40266;52.434;17.056;2023-05-02T13:13:07;100899.46;;;19.74;44.71
54369;BME280;40266;52.434;17.056;2023-05-02T13:15:50;100901.73;;;19.66;44.67
54369;BME280;40266;52.434;17.056;2023-05-02T13:18:33;100907.79;;;19.55;45.30
54369;BME280;40266;52.434;17.056;2023-05-02T13:21:16;100909.71;;;19.42;45.37
54369;BME280;40266;52.434;17.056;2023-05-02T13:23:59;100913.55;;;19.29;45.74
54369;BME280;40266;52.434;17.056;2023-05-02T13:26:42;100919.45;;;19.10;46.08
54369;BME280;40266;52.434;17.056;2023-05-02T13:29:26;100926.66;;;18.96;46.50
54369;BME280;40266;52.434;17.056;2023-05-02T13:32:08;100934.80;;;18.85;46.66
54369;BME280;40266;52.434;17.056;2023-05-02T13:34:51;100934.54;;;18.75;47.18
54369;BME280;40266;52.434;17.056;2023-05-02T13:37:34;100937.42;;;18.67;47.45
54369;BME280;40266;52.434;17.056;2023-05-02T13:40:17;100940.06;;;18.59;47.73
54369;BME280;40266;52.434;17.056;2023-05-02T13:43:01;100941.30;;;18.56;47.76
54369;BME280;40266;52.434;17.056;2023-05-02T13:45:44;100941.29;;;18.52;48.11
54369;BME280;40266;52.434;17.056;2023-05-02T13:48:29;100946.63;;;18.51;48.31
54369;BME280;40266;52.434;17.056;2023-05-02T13:51:11;100946.59;;;18.52;48.06
54369;BME280;40266;52.434;17.056;2023-05-02T13:53:54;100947.77;;;18.45;47.80
54369;BME280;40266;52.434;17.056;2023-05-02T13:56:37;100950.43;;;18.45;48.11
54369;BME280;40266;52.434;17.056;2023-05-02T13:59:21;100950.37;;;18.47;47.70
54369;BME280;40266;52.434;17.056;2023-05-02T14:02:04;100956.08;;;18.42;47.89
54369;BME280;40266;52.434;17.056;2023-05-02T14:04:47;100958.27;;;18.36;47.67
54369;BME280;40266;52.434;17.056;2023-05-02T14:07:30;100956.78;;;18.30;47.87
54369;BME280;40266;52.434;17.056;2023-05-02T14:10:14;100962.50;;;18.28;48.49
54369;BME280;40266;52.434;17.056;2023-05-02T14:12:56;100962.46;;;18.29;48.34
54369;BME280;40266;52.434;17.056;2023-05-02T14:15:39;100972.39;;;18.29;48.36
54369;BME280;40266;52.434;17.056;2023-05-02T14:18:22;100970.78;;;18.21;47.90
54369;BME280;40266;52.434;17.056;2023-05-02T14:21:05;100976.25;;;18.10;48.17
54369;BME280;40266;52.434;17.056;2023-05-02T14:23:48;100977.52;;;18.05;48.27
54369;BME280;40266;52.434;17.056;2023-05-02T14:26:31;100980.66;;;18.02;47.93
54369;BME280;40266;52.434;17.056;2023-05-02T14:29:14;100986.94;;;17.96;48.15
54369;BME280;40266;52.434;17.056;2023-05-02T14:31:58;100990.19;;;17.90;47.88
54369;BME280;40266;52.434;17.056;2023-05-02T14:34:41;100991.23;;;17.81;47.64
54369;BME280;40266;52.434;17.056;2023-05-02T14:37:24;100995.88;;;17.80;47.95
54369;BME280;40266;52.434;17.056;2023-05-02T14:40:08;100997.57;;;17.82;47.83
54369;BME280;40266;52.434;17.056;2023-05-02T14:42:51;101000.19;;;17.78;47.69
54369;BME280;40266;52.434;17.056;2023-05-02T14:45:33;100999.23;;;17.71;47.45
54369;BME280;40266;52.434;17.056;2023-05-02T14:48:16;101000.73;;;17.61;47.02
54369;BME280;40266;52.434;17.056;2023-05-02T14:51:02;101000.63;;;17.51;46.99
54369;BME280;40266;52.434;17.056;2023-05-02T14:53:46;101006.48;;;17.42;47.19